Terminal Aerodrome Forecast
Issued by NWS Sterling, VA

Current Version | Previous Version | Text Only | Print | Product List | Glossary Off
Versions: 1 2 3 4 5 6 7 8 9 10 11 12 13 14 15 16 17 18 19 20 21 22 23 24 25 26 27

000
FTUS41 KLWX 251100
TAFIAD
TAF
KIAD 251136Z 2512/2618 31006KT P6SM BKN200
     FM252300 00000KT P6SM BKN140
     FM260700 35006KT P6SM OVC070
     FM260900 01008KT P6SM -RASN OVC045
     FM261100 01009KT P6SM -RASN OVC030
     FM261200 02008KT 3SM RASN OVC008
     FM261500 36007KT 1SM RASN OVC003=

USA.gov is the U.S. government's official web portal to all federal, state and local government web resources and services.